createdAt,value
2022-11-06T00:00:40.543Z,59.13
2022-11-06T00:03:07.946Z,58.88
2022-11-06T00:05:44.916Z,58.85
2022-11-06T00:08:12.204Z,59.16
2022-11-06T00:10:39.545Z,58.94
2022-11-06T00:13:06.613Z,58.69
2022-11-06T00:15:34.039Z,59.15
2022-11-06T00:18:00.796Z,58.61
2022-11-06T00:20:27.664Z,58.93
2022-11-06T00:22:54.435Z,58.92
2022-11-06T00:25:21.249Z,58.55
2022-11-06T00:27:48.174Z,58.38
2022-11-06T00:30:15.074Z,58.53
2022-11-06T00:32:41.897Z,58.66
2022-11-06T00:35:09.127Z,58.55
2022-11-06T00:37:36.013Z,58.49
2022-11-06T00:40:03.168Z,58.07
2022-11-06T00:42:30.159Z,57.99
2022-11-06T00:44:57.466Z,58.33
2022-11-06T00:47:24.227Z,58.23
2022-11-06T00:49:50.998Z,58.42
2022-11-06T00:52:17.805Z,58.36
2022-11-06T00:54:44.691Z,57.91
2022-11-06T00:57:11.548Z,58.05
2022-11-06T00:59:38.429Z,57.87
2022-11-06T01:02:07.957Z,58.00
2022-11-06T01:04:35.093Z,58.53
2022-11-06T01:07:02.279Z,58.57
2022-11-06T01:09:29.477Z,59.17
2022-11-06T01:12:14.229Z,59.74
2022-11-06T01:14:42.098Z,59.82
2022-11-06T01:17:08.956Z,59.50
2022-11-06T01:19:35.886Z,59.83
2022-11-06T01:22:03.036Z,59.58
2022-11-06T01:24:30.604Z,59.53
2022-11-06T01:27:24.874Z,60.17
2022-11-06T01:29:45.164Z,59.60
2022-11-06T01:32:12.462Z,59.92
2022-11-06T01:34:39.488Z,59.92
2022-11-06T01:37:09.104Z,60.50
2022-11-06T01:39:38.403Z,60.13
2022-11-06T01:42:05.312Z,60.00
2022-11-06T01:44:32.587Z,60.13
2022-11-06T01:47:00.346Z,59.73
2022-11-06T01:49:29.235Z,60.28
2022-11-06T01:51:58.716Z,59.67
2022-11-06T01:54:28.123Z,60.18
2022-11-06T01:56:57.701Z,60.09
2022-11-06T01:59:28.861Z,60.67
2022-11-06T02:01:56.181Z,60.61
2022-11-06T02:04:26.154Z,60.76
2022-11-06T02:06:55.802Z,60.68
2022-11-06T02:09:23.386Z,60.66
2022-11-06T02:12:00.390Z,60.50
2022-11-06T02:14:37.042Z,60.36
2022-11-06T02:17:10.002Z,60.51
2022-11-06T02:19:51.087Z,60.72
2022-11-06T02:22:29.208Z,60.36
2022-11-06T02:25:06.556Z,60.63
2022-11-06T02:27:34.670Z,60.51
2022-11-06T02:30:04.110Z,60.96
2022-11-06T02:32:35.254Z,61.22
2022-11-06T02:35:04.302Z,60.67
2022-11-06T02:37:34.220Z,60.25
2022-11-06T02:40:03.449Z,60.64
2022-11-06T02:42:31.641Z,60.17
2022-11-06T02:45:00.055Z,60.53
2022-11-06T02:47:29.138Z,60.43
2022-11-06T02:50:01.876Z,60.82
2022-11-06T02:52:34.447Z,60.21
2022-11-06T02:55:05.473Z,60.58
2022-11-06T02:57:35.988Z,60.51
2022-11-06T03:00:05.882Z,60.68
2022-11-06T03:02:37.561Z,60.89
2022-11-06T03:05:07.792Z,60.61
2022-11-06T03:07:38.797Z,61.08
2022-11-06T03:10:07.021Z,61.02
2022-11-06T03:12:42.790Z,61.31
2022-11-06T03:15:10.628Z,61.16
2022-11-06T03:17:44.167Z,61.22
2022-11-06T03:20:23.862Z,61.67
2022-11-06T03:22:57.723Z,61.81
2022-11-06T03:25:28.750Z,61.52
2022-11-06T03:27:55.987Z,61.98
2022-11-06T03:30:23.058Z,62.21
2022-11-06T03:33:00.892Z,62.13
2022-11-06T03:35:31.605Z,62.02
2022-11-06T03:38:01.845Z,61.71
2022-11-06T03:40:30.535Z,61.93
2022-11-06T03:42:58.469Z,61.61
2022-11-06T03:45:26.806Z,61.80
2022-11-06T03:47:57.320Z,62.22
2022-11-06T03:50:26.600Z,62.13
2022-11-06T03:52:57.922Z,61.80
2022-11-06T03:55:29.084Z,62.25
2022-11-06T03:57:57.987Z,62.04
2022-11-06T04:00:25.092Z,62.26
2022-11-06T04:03:05.350Z,62.09
2022-11-06T04:05:36.058Z,62.60
2022-11-06T04:08:14.105Z,62.42
2022-11-06T04:10:54.396Z,62.41
2022-11-06T04:13:31.933Z,62.71
2022-11-06T04:15:59.329Z,62.41
2022-11-06T04:18:26.406Z,62.70
2022-11-06T04:21:13.846Z,62.41
2022-11-06T04:24:11.050Z,62.69
2022-11-06T04:26:43.787Z,62.64
2022-11-06T04:29:19.291Z,62.97
2022-11-06T04:31:56.679Z,62.82
2022-11-06T04:34:32.911Z,63.06
2022-11-06T04:36:59.835Z,62.97
2022-11-06T04:39:26.972Z,63.45
2022-11-06T04:42:05.365Z,63.04
2022-11-06T04:44:36.012Z,63.78
2022-11-06T04:47:04.979Z,63.13
2022-11-06T04:49:33.367Z,63.22
2022-11-06T04:52:02.805Z,63.70
2022-11-06T04:54:29.995Z,63.56
2022-11-06T04:57:00.951Z,63.64
2022-11-06T04:59:29.634Z,63.77
2022-11-06T05:01:56.650Z,63.88
2022-11-06T05:04:23.892Z,63.66
2022-11-06T05:06:50.943Z,63.92
2022-11-06T05:09:18.144Z,64.06
2022-11-06T05:11:45.094Z,64.23
2022-11-06T05:14:12.005Z,64.35
2022-11-06T05:16:38.910Z,63.90
2022-11-06T05:19:06.266Z,64.29
2022-11-06T05:21:43.677Z,64.22
2022-11-06T05:24:11.174Z,64.21
2022-11-06T05:26:38.382Z,63.83
2022-11-06T05:29:05.763Z,64.38
2022-11-06T05:31:33.064Z,64.40
2022-11-06T05:34:00.508Z,64.29
2022-11-06T05:36:31.390Z,64.60
2022-11-06T05:38:58.933Z,64.58
2022-11-06T05:41:26.647Z,64.55
2022-11-06T05:43:54.900Z,64.37
2022-11-06T05:46:47.037Z,64.46
2022-11-06T05:49:10.488Z,64.18
2022-11-06T05:51:38.943Z,64.53
2022-11-06T05:54:07.145Z,64.80
2022-11-06T05:56:35.021Z,64.51
2022-11-06T05:59:02.326Z,64.66
2022-11-06T06:01:29.474Z,64.35
2022-11-06T06:03:56.554Z,64.82
2022-11-06T06:06:23.877Z,64.74
2022-11-06T06:08:51.066Z,64.70
2022-11-06T06:11:18.232Z,64.48
2022-11-06T06:13:45.159Z,64.55
2022-11-06T06:16:12.507Z,64.70
2022-11-06T06:18:41.461Z,64.87
2022-11-06T06:21:10.015Z,64.90
2022-11-06T06:23:37.112Z,64.78
2022-11-06T06:26:06.012Z,64.45
2022-11-06T06:28:33.191Z,64.73
2022-11-06T06:31:03.614Z,64.51
2022-11-06T06:33:30.629Z,64.81
2022-11-06T06:35:58.236Z,64.63
2022-11-06T06:38:26.732Z,65.05
2022-11-06T06:40:54.811Z,64.94
2022-11-06T06:43:23.855Z,64.63
2022-11-06T06:45:50.826Z,64.85
2022-11-06T06:48:17.668Z,64.65
2022-11-06T06:50:47.323Z,64.82
2022-11-06T06:53:15.938Z,65.11
2022-11-06T06:55:43.897Z,65.23
2022-11-06T06:58:17.648Z,65.12
2022-11-06T07:00:48.618Z,64.83
2022-11-06T07:03:15.610Z,65.32
2022-11-06T07:05:47.345Z,65.16
2022-11-06T07:08:21.584Z,65.50
2022-11-06T07:10:48.375Z,64.81
2022-11-06T07:13:15.774Z,64.86
2022-11-06T07:15:42.806Z,64.64
2022-11-06T07:18:11.053Z,65.69
2022-11-06T07:20:40.026Z,64.76
2022-11-06T07:23:08.353Z,66.80
2022-11-06T07:25:35.806Z,67.96
2022-11-06T07:28:04.632Z,67.91
2022-11-06T07:30:32.574Z,68.18
2022-11-06T07:33:01.225Z,68.51
2022-11-06T07:35:29.478Z,68.38
2022-11-06T07:38:00.612Z,68.39
2022-11-06T07:40:31.082Z,68.16
2022-11-06T07:43:03.469Z,68.54
2022-11-06T07:45:31.047Z,68.52
2022-11-06T07:48:02.195Z,68.31
2022-11-06T07:50:29.957Z,68.08
2022-11-06T07:52:58.019Z,67.75
2022-11-06T07:55:25.656Z,68.35
2022-11-06T07:57:52.979Z,68.31
2022-11-06T08:00:21.652Z,68.54
2022-11-06T08:02:53.607Z,68.03
2022-11-06T08:05:21.928Z,68.37
2022-11-06T08:07:50.863Z,68.24
2022-11-06T08:10:18.297Z,68.18
2022-11-06T08:12:45.196Z,67.92
2022-11-06T08:15:12.512Z,67.69
2022-11-06T08:17:41.968Z,67.89
2022-11-06T08:20:10.457Z,67.85
2022-11-06T08:22:37.846Z,67.18
2022-11-06T08:25:06.364Z,67.21
2022-11-06T08:27:34.143Z,66.76
2022-11-06T08:30:02.147Z,66.86
2022-11-06T08:32:29.935Z,66.53
2022-11-06T08:34:57.643Z,66.71
2022-11-06T08:37:25.272Z,66.23
2022-11-06T08:39:55.408Z,66.40
2022-11-06T08:42:23.480Z,65.81
2022-11-06T08:44:50.732Z,65.76
2022-11-06T08:47:18.341Z,65.97
2022-11-06T08:49:45.850Z,65.63
2022-11-06T08:52:13.300Z,65.64
2022-11-06T08:54:40.451Z,65.73
2022-11-06T08:57:07.668Z,65.11
2022-11-06T08:59:35.591Z,65.36
2022-11-06T09:02:06.220Z,64.98
2022-11-06T09:04:37.283Z,65.48
2022-11-06T09:07:07.203Z,65.38
2022-11-06T09:09:34.860Z,64.99
2022-11-06T09:12:03.205Z,65.09
2022-11-06T09:14:30.695Z,64.87
2022-11-06T09:17:01.119Z,64.93
2022-11-06T09:19:28.769Z,65.35
2022-11-06T09:21:56.151Z,65.54
2022-11-06T09:24:43.621Z,64.83
2022-11-06T09:27:11.718Z,64.76
2022-11-06T09:29:41.374Z,63.15
2022-11-06T09:32:08.643Z,62.42
2022-11-06T09:34:36.264Z,62.90
2022-11-06T09:37:03.781Z,62.80
2022-11-06T09:39:31.244Z,62.90
2022-11-06T09:42:03.386Z,62.80
2022-11-06T09:44:34.563Z,63.04
2022-11-06T09:47:04.768Z,62.96
2022-11-06T09:49:42.797Z,63.00
2022-11-06T09:52:17.329Z,63.24
2022-11-06T09:54:56.099Z,63.02
2022-11-06T09:57:34.207Z,62.85
2022-11-06T10:00:03.005Z,62.42
2022-11-06T10:02:33.206Z,62.38
2022-11-06T10:05:05.990Z,62.19
2022-11-06T10:07:34.555Z,61.80
2022-11-06T10:10:02.227Z,62.13
2022-11-06T10:12:34.690Z,61.86
2022-11-06T10:15:08.768Z,61.96
2022-11-06T10:17:44.724Z,61.82
2022-11-06T10:20:20.918Z,61.73
2022-11-06T10:23:02.265Z,61.80
2022-11-06T10:25:40.997Z,61.59
2022-11-06T10:28:22.788Z,61.93
2022-11-06T10:30:58.219Z,61.76
2022-11-06T10:33:25.316Z,62.07
2022-11-06T10:35:57.319Z,61.74
2022-11-06T10:38:28.145Z,61.49
2022-11-06T10:40:55.994Z,61.47
2022-11-06T10:43:33.359Z,61.42
2022-11-06T10:46:10.554Z,61.61
2022-11-06T10:48:41.812Z,61.82
2022-11-06T10:51:12.088Z,62.20
2022-11-06T10:53:48.956Z,62.02
2022-11-06T10:56:24.398Z,62.31
2022-11-06T10:58:51.284Z,62.09
2022-11-06T11:01:18.246Z,62.33
2022-11-06T11:03:47.250Z,61.94
2022-11-06T11:06:14.669Z,61.96
2022-11-06T11:08:42.760Z,61.91
2022-11-06T11:11:19.505Z,61.65
2022-11-06T11:13:48.098Z,61.53
2022-11-06T11:16:18.747Z,61.48
2022-11-06T11:18:46.906Z,61.23
2022-11-06T11:21:13.857Z,61.61
2022-11-06T11:23:40.851Z,61.11
2022-11-06T11:26:16.726Z,61.22
2022-11-06T11:28:44.211Z,61.27
2022-11-06T11:31:12.555Z,61.00
2022-11-06T11:33:44.805Z,61.08
2022-11-06T11:36:11.834Z,61.08
2022-11-06T11:38:40.260Z,61.01
2022-11-06T11:41:16.641Z,60.94
2022-11-06T11:43:44.328Z,61.20
2022-11-06T11:46:13.145Z,60.77
2022-11-06T11:48:50.789Z,60.72
2022-11-06T11:51:18.006Z,60.91
2022-11-06T11:53:45.071Z,60.54
2022-11-06T11:56:26.569Z,60.78
2022-11-06T11:59:03.806Z,60.98
2022-11-06T12:01:35.089Z,60.93
2022-11-06T12:04:07.812Z,60.84
2022-11-06T12:06:34.883Z,60.71
2022-11-06T12:09:02.276Z,60.26
2022-11-06T12:11:30.735Z,61.22
2022-11-06T12:14:06.933Z,60.87
2022-11-06T12:16:34.133Z,60.83
2022-11-06T12:19:02.478Z,60.16
2022-11-06T12:21:33.645Z,60.18
2022-11-06T12:24:04.528Z,60.05
2022-11-06T12:26:35.005Z,59.81
2022-11-06T12:29:06.769Z,60.21
2022-11-06T12:31:39.490Z,59.77
2022-11-06T12:34:17.000Z,59.79
2022-11-06T12:36:46.686Z,59.77
2022-11-06T12:39:17.123Z,59.46
2022-11-06T12:41:46.225Z,59.40
2022-11-06T12:44:15.304Z,59.27
2022-11-06T12:46:45.488Z,59.09
2022-11-06T12:49:21.795Z,59.41
2022-11-06T12:51:57.828Z,59.48
2022-11-06T12:54:34.684Z,59.38
2022-11-06T12:57:10.499Z,58.96
2022-11-06T12:59:45.172Z,59.35
2022-11-06T13:02:22.019Z,59.11
2022-11-06T13:04:54.855Z,59.09
2022-11-06T13:07:31.855Z,59.27
2022-11-06T13:10:02.451Z,58.84
2022-11-06T13:12:38.705Z,58.82
2022-11-06T13:15:14.957Z,59.30
2022-11-06T13:17:46.842Z,59.22
2022-11-06T13:20:22.135Z,58.71
2022-11-06T13:22:54.701Z,59.07
2022-11-06T13:25:24.811Z,58.80
2022-11-06T13:28:00.856Z,59.12
2022-11-06T13:30:29.428Z,59.35
2022-11-06T13:33:03.354Z,58.93
2022-11-06T13:35:32.404Z,59.36
2022-11-06T13:38:00.481Z,59.13
2022-11-06T13:40:30.790Z,59.36
2022-11-06T13:43:08.166Z,58.91
2022-11-06T13:45:42.800Z,59.14
2022-11-06T13:48:19.731Z,59.30
2022-11-06T13:50:50.237Z,58.99
2022-11-06T13:53:30.800Z,59.46
2022-11-06T13:56:05.063Z,59.47
2022-11-06T13:58:41.605Z,59.28
2022-11-06T14:01:09.086Z,59.50
2022-11-06T14:03:39.433Z,59.13
2022-11-06T14:06:08.719Z,59.12
2022-11-06T14:08:44.930Z,59.07
2022-11-06T14:11:14.408Z,59.36
2022-11-06T14:13:42.459Z,59.18
2022-11-06T14:16:28.760Z,59.24
2022-11-06T14:18:59.444Z,59.35
2022-11-06T14:21:27.049Z,59.03
2022-11-06T14:23:55.184Z,59.05
2022-11-06T14:26:31.668Z,59.49
2022-11-06T14:29:18.548Z,59.22
2022-11-06T14:31:54.830Z,58.93
2022-11-06T14:34:30.677Z,59.05
2022-11-06T14:36:58.138Z,58.88
2022-11-06T14:39:34.759Z,58.83
2022-11-06T14:42:02.014Z,58.97
2022-11-06T14:44:38.830Z,58.81
2022-11-06T14:47:07.762Z,58.85
2022-11-06T14:49:34.916Z,59.28
2022-11-06T14:52:04.733Z,58.80
2022-11-06T14:54:33.963Z,59.21
2022-11-06T14:57:01.322Z,58.99
2022-11-06T14:59:37.886Z,59.13
2022-11-06T15:02:14.766Z,59.33
2022-11-06T15:04:45.859Z,59.37
2022-11-06T15:07:50.910Z,59.06
2022-11-06T15:10:23.921Z,58.85
2022-11-06T15:13:00.727Z,59.08
2022-11-06T15:15:29.737Z,59.27
2022-11-06T15:17:58.882Z,59.35
2022-11-06T15:20:31.037Z,59.29
2022-11-06T15:23:02.401Z,59.24
2022-11-06T15:25:29.702Z,59.11
2022-11-06T15:27:59.308Z,59.09
2022-11-06T15:30:27.171Z,59.25
2022-11-06T15:32:54.638Z,59.15
2022-11-06T15:35:24.380Z,59.35
2022-11-06T15:37:53.828Z,59.03
2022-11-06T15:40:28.056Z,58.84
2022-11-06T15:42:56.784Z,58.82
2022-11-06T15:45:26.188Z,58.85
2022-11-06T15:47:54.792Z,58.73
2022-11-06T15:50:24.049Z,59.26
2022-11-06T15:52:51.355Z,58.85
2022-11-06T15:55:28.105Z,58.95
2022-11-06T15:57:55.463Z,59.20
2022-11-06T16:00:25.074Z,58.92
2022-11-06T16:03:01.007Z,58.84
2022-11-06T16:05:29.459Z,59.23
2022-11-06T16:07:57.518Z,58.99
2022-11-06T16:10:25.335Z,59.13
2022-11-06T16:12:54.001Z,58.92
2022-11-06T16:15:30.894Z,58.96
2022-11-06T16:18:12.658Z,58.72
2022-11-06T16:20:42.519Z,59.06
2022-11-06T16:23:12.919Z,58.77
2022-11-06T16:25:40.682Z,59.10
2022-11-06T16:28:18.129Z,59.14
2022-11-06T16:30:46.118Z,58.98
2022-11-06T16:33:19.558Z,59.21
2022-11-06T16:35:51.207Z,59.00
2022-11-06T16:38:44.741Z,59.00
2022-11-06T16:41:13.050Z,59.05
2022-11-06T16:43:40.316Z,59.49
2022-11-06T16:46:09.026Z,59.75
2022-11-06T16:48:40.436Z,59.93
2022-11-06T16:51:12.494Z,60.00
2022-11-06T16:53:46.990Z,60.00
2022-11-06T16:56:14.698Z,59.92
2022-11-06T16:58:46.857Z,60.02
2022-11-06T17:01:19.841Z,59.76
2022-11-06T17:03:49.921Z,59.66
2022-11-06T17:06:20.643Z,59.78
2022-11-06T17:08:57.166Z,59.68
2022-11-06T17:11:24.407Z,59.96
2022-11-06T17:13:51.772Z,59.68
2022-11-06T17:16:20.943Z,59.33
2022-11-06T17:18:48.585Z,59.32
2022-11-06T17:21:18.057Z,58.79
2022-11-06T17:23:45.404Z,58.98
2022-11-06T17:26:13.665Z,58.82
2022-11-06T17:28:41.108Z,58.63
2022-11-06T17:31:10.963Z,57.84
2022-11-06T17:33:38.119Z,58.07
2022-11-06T17:36:05.993Z,57.88
2022-11-06T17:38:33.223Z,57.48
2022-11-06T17:41:00.351Z,57.56
2022-11-06T17:43:27.495Z,57.03
2022-11-06T17:45:54.897Z,56.65
2022-11-06T17:48:22.018Z,56.63
2022-11-06T17:50:58.583Z,56.75
2022-11-06T17:53:25.693Z,56.66
2022-11-06T17:55:53.220Z,56.70
2022-11-06T17:58:20.371Z,56.35
2022-11-06T18:00:47.616Z,56.19
2022-11-06T18:03:19.506Z,55.93
2022-11-06T18:05:47.386Z,56.19
2022-11-06T18:08:15.213Z,56.14
2022-11-06T18:10:42.778Z,56.51
2022-11-06T18:13:09.779Z,56.29
2022-11-06T18:15:37.323Z,56.13
2022-11-06T18:18:04.971Z,55.67
2022-11-06T18:20:32.268Z,56.10
2022-11-06T18:22:59.510Z,55.70
2022-11-06T18:25:26.884Z,55.59
2022-11-06T18:27:54.184Z,55.57
2022-11-06T18:30:21.480Z,55.68
2022-11-06T18:32:48.591Z,55.62
2022-11-06T18:35:15.620Z,55.32
2022-11-06T18:37:42.907Z,55.56
2022-11-06T18:40:10.658Z,55.37
2022-11-06T18:42:37.991Z,55.25
2022-11-06T18:45:06.835Z,55.56
2022-11-06T18:47:35.081Z,55.30
2022-11-06T18:50:02.258Z,55.05
2022-11-06T18:52:55.627Z,55.74
2022-11-06T18:55:16.873Z,55.61
2022-11-06T18:57:46.321Z,55.66
2022-11-06T19:00:14.201Z,55.64
2022-11-06T19:02:41.378Z,55.45
2022-11-06T19:05:08.789Z,55.50
2022-11-06T19:07:36.086Z,55.87
2022-11-06T19:10:03.332Z,54.23
2022-11-06T19:12:30.378Z,50.94
2022-11-06T19:14:57.429Z,50.55
2022-11-06T19:17:25.016Z,49.98
2022-11-06T19:19:52.214Z,50.82
2022-11-06T19:22:19.407Z,51.21
2022-11-06T19:24:47.092Z,51.58
2022-11-06T19:27:14.175Z,52.78
2022-11-06T19:29:42.966Z,52.99
2022-11-06T19:32:10.181Z,53.10
2022-11-06T19:34:39.294Z,54.25
2022-11-06T19:37:06.709Z,53.94
2022-11-06T19:39:33.954Z,54.21
2022-11-06T19:42:01.663Z,53.91
2022-11-06T19:44:28.711Z,54.09
2022-11-06T19:46:56.132Z,54.58
2022-11-06T19:49:23.659Z,54.47
2022-11-06T19:51:50.766Z,54.45
2022-11-06T19:54:17.937Z,54.30
2022-11-06T19:57:29.558Z,54.30
2022-11-06T19:59:34.630Z,54.41
2022-11-06T20:02:02.025Z,54.38
2022-11-06T20:04:29.325Z,54.12
2022-11-06T20:06:56.622Z,54.17
2022-11-06T20:09:23.828Z,54.34
2022-11-06T20:11:52.207Z,54.37
2022-11-06T20:14:22.404Z,54.23
2022-11-06T20:16:50.419Z,54.67
2022-11-06T20:19:17.807Z,54.41
2022-11-06T20:21:45.206Z,54.75
2022-11-06T20:24:12.500Z,54.44
2022-11-06T20:26:40.237Z,54.46
2022-11-06T20:29:07.571Z,54.43
2022-11-06T20:31:34.826Z,54.84
2022-11-06T20:34:04.283Z,54.91
2022-11-06T20:36:31.947Z,54.83
2022-11-06T20:39:00.299Z,55.02
2022-11-06T20:41:28.077Z,54.75
2022-11-06T20:43:55.279Z,54.75
2022-11-06T20:46:23.434Z,54.96
2022-11-06T20:48:50.907Z,54.94
2022-11-06T20:51:19.840Z,54.79
2022-11-06T20:53:47.203Z,54.97
2022-11-06T20:56:15.626Z,55.05
2022-11-06T20:58:43.472Z,54.97
2022-11-06T21:01:12.403Z,55.28
2022-11-06T21:03:41.302Z,54.94
2022-11-06T21:06:08.883Z,55.26
2022-11-06T21:08:37.348Z,55.42
2022-11-06T21:11:08.428Z,55.09
2022-11-06T21:13:35.751Z,54.99
2022-11-06T21:16:05.845Z,55.07
2022-11-06T21:18:35.599Z,55.14
2022-11-06T21:21:03.467Z,54.84
2022-11-06T21:23:30.636Z,55.36
2022-11-06T21:25:57.796Z,55.22
2022-11-06T21:28:24.818Z,55.09
2022-11-06T21:30:52.177Z,54.94
2022-11-06T21:33:19.547Z,55.46
2022-11-06T21:35:49.198Z,55.35
2022-11-06T21:38:16.391Z,55.94
2022-11-06T21:40:43.487Z,55.97
2022-11-06T21:43:10.767Z,56.09
2022-11-06T21:45:38.121Z,56.11
2022-11-06T21:48:10.954Z,56.71
2022-11-06T21:50:47.130Z,56.88
2022-11-06T21:53:23.658Z,56.61
2022-11-06T21:56:00.705Z,56.32
2022-11-06T21:58:27.890Z,56.23
2022-11-06T22:00:54.930Z,56.28
2022-11-06T22:03:21.978Z,56.17
2022-11-06T22:05:49.050Z,56.14
2022-11-06T22:08:16.215Z,56.18
2022-11-06T22:10:43.478Z,56.11
2022-11-06T22:13:10.472Z,55.74
2022-11-06T22:15:37.627Z,55.68
2022-11-06T22:18:04.653Z,56.09
2022-11-06T22:20:31.709Z,55.97
2022-11-06T22:22:58.669Z,55.96
2022-11-06T22:25:25.608Z,56.03
2022-11-06T22:27:53.648Z,55.81
2022-11-06T22:30:20.574Z,55.68
2022-11-06T22:32:47.537Z,55.48
2022-11-06T22:35:14.543Z,55.24
2022-11-06T22:37:41.468Z,55.44
2022-11-06T22:40:08.992Z,55.27
2022-11-06T22:42:36.032Z,55.30
2022-11-06T22:45:03.114Z,54.86
2022-11-06T22:47:30.222Z,55.46
2022-11-06T22:49:57.153Z,55.44
2022-11-06T22:52:24.179Z,56.28
2022-11-06T22:54:51.088Z,55.78
2022-11-06T22:57:18.248Z,55.29
2022-11-06T22:59:45.128Z,55.79
2022-11-06T23:02:12.259Z,55.74
2022-11-06T23:04:39.371Z,55.82
2022-11-06T23:07:06.545Z,55.33
2022-11-06T23:09:34.088Z,55.85
2022-11-06T23:12:02.066Z,56.03
2022-11-06T23:14:30.699Z,55.95
2022-11-06T23:16:59.315Z,56.21
2022-11-06T23:19:27.471Z,56.22
2022-11-06T23:22:16.043Z,56.20
2022-11-06T23:24:43.798Z,56.05
2022-11-06T23:27:12.202Z,55.86
2022-11-06T23:29:40.270Z,55.88
2022-11-06T23:32:07.717Z,55.83
2022-11-06T23:34:34.969Z,56.19
2022-11-06T23:37:02.112Z,56.28
2022-11-06T23:39:28.979Z,56.15
2022-11-06T23:41:56.320Z,56.31
2022-11-06T23:44:33.755Z,56.08
2022-11-06T23:47:02.116Z,56.33
2022-11-06T23:49:29.027Z,56.34
2022-11-06T23:51:56.191Z,56.48
2022-11-06T23:54:23.712Z,56.58
2022-11-06T23:56:50.990Z,56.27
2022-11-06T23:59:17.849Z,56.62
